createdAt,value
2022-09-17T00:00:08.586Z,55
2022-09-17T00:15:02.446Z,54
2022-09-17T00:30:08.838Z,54
2022-09-17T00:45:03.543Z,53
2022-09-17T01:00:04.553Z,53
2022-09-17T01:15:04.789Z,53
2022-09-17T01:30:04.079Z,52
2022-09-17T01:45:02.373Z,52
2022-09-17T02:00:05.742Z,52
2022-09-17T02:15:03.138Z,52
2022-09-17T02:30:08.038Z,52
2022-09-17T02:45:02.651Z,51
2022-09-17T03:00:05.905Z,51
2022-09-17T03:15:02.385Z,51
2022-09-17T03:30:05.995Z,51
2022-09-17T03:45:06.867Z,50
2022-09-17T04:00:05.836Z,50
2022-09-17T04:15:03.025Z,50
2022-09-17T04:30:06.089Z,50
2022-09-17T04:45:04.324Z,49
2022-09-17T05:00:10.415Z,49
2022-09-17T05:15:03.796Z,49
2022-09-17T05:30:04.281Z,49
2022-09-17T05:45:03.711Z,48
2022-09-17T06:00:10.722Z,48
2022-09-17T06:15:02.503Z,48
2022-09-17T06:30:09.583Z,48
2022-09-17T06:45:12.176Z,48
2022-09-17T07:00:12.116Z,48
2022-09-17T07:15:04.294Z,47
2022-09-17T07:30:14.314Z,47
2022-09-17T07:45:05.971Z,47
2022-09-17T08:00:10.591Z,47
2022-09-17T08:15:04.144Z,47
2022-09-17T08:30:05.947Z,47
2022-09-17T08:45:05.522Z,47
2022-09-17T09:00:07.257Z,46
2022-09-17T09:15:05.102Z,46
2022-09-17T09:30:07.299Z,46
2022-09-17T09:45:05.774Z,46
2022-09-17T10:00:07.585Z,45
2022-09-17T10:15:02.921Z,45
2022-09-17T10:30:08.538Z,45
2022-09-17T10:45:04.301Z,45
2022-09-17T11:00:08.640Z,45
2022-09-17T11:15:03.755Z,45
2022-09-17T11:30:06.362Z,45
2022-09-17T11:45:03.134Z,45
2022-09-17T12:00:06.583Z,46
2022-09-17T12:15:03.558Z,45
2022-09-17T12:30:07.179Z,45
2022-09-17T12:45:03.572Z,45
2022-09-17T13:00:09.961Z,45
2022-09-17T13:15:04.103Z,45
2022-09-17T13:30:08.566Z,45
2022-09-17T13:45:13.128Z,45
2022-09-17T14:00:10.253Z,45
2022-09-17T14:15:05.168Z,45
2022-09-17T14:30:06.275Z,45
2022-09-17T14:45:02.768Z,44
2022-09-17T15:00:11.243Z,44
2022-09-17T15:15:03.106Z,44
2022-09-17T15:30:08.164Z,44
2022-09-17T15:45:04.414Z,44
2022-09-17T16:00:06.433Z,43
2022-09-17T16:15:02.540Z,43
2022-09-17T16:30:06.575Z,43
2022-09-17T16:45:06.029Z,43
2022-09-17T17:00:09.249Z,43
2022-09-17T17:15:06.510Z,43
2022-09-17T17:30:08.804Z,43
2022-09-17T17:45:02.421Z,43
2022-09-17T18:00:11.050Z,42
2022-09-17T18:15:04.874Z,42
2022-09-17T18:30:06.594Z,42
2022-09-17T18:45:06.779Z,42
2022-09-17T19:00:11.778Z,42
2022-09-17T19:15:03.967Z,43
2022-09-17T19:30:03.909Z,43
2022-09-17T19:45:04.501Z,43
2022-09-17T20:00:15.875Z,43
2022-09-17T20:15:05.206Z,43
2022-09-17T20:30:06.646Z,43
2022-09-17T20:45:04.940Z,43
2022-09-17T21:00:07.033Z,43
2022-09-17T21:15:02.770Z,43
2022-09-17T21:30:03.649Z,43
2022-09-17T21:45:03.139Z,43
2022-09-17T22:00:06.550Z,43
2022-09-17T22:15:02.886Z,43
2022-09-17T22:30:04.415Z,43
2022-09-17T22:45:05.144Z,43
2022-09-17T23:00:06.821Z,43
2022-09-17T23:15:02.225Z,43
2022-09-17T23:30:05.041Z,43
2022-09-17T23:45:02.154Z,43
